sensor_id;sensor_type;location;lat;lon;timestamp;pressure;altitude;pressure_sealevel;temperature
15062;BMP180;7630;50.306;8.566;2023-12-20T00:03:16;97621.00;;;6.00
15062;BMP180;7630;50.306;8.566;2023-12-20T00:07:17;97625.00;;;6.60
15062;BMP180;7630;50.306;8.566;2023-12-20T00:11:19;97633.00;;;6.90
15062;BMP180;7630;50.306;8.566;2023-12-20T00:15:20;97621.00;;;6.20
15062;BMP180;7630;50.306;8.566;2023-12-20T00:19:21;97622.00;;;6.70
15062;BMP180;7630;50.306;8.566;2023-12-20T00:23:22;97620.00;;;6.80
15062;BMP180;7630;50.306;8.566;2023-12-20T00:27:24;97614.00;;;7.00
15062;BMP180;7630;50.306;8.566;2023-12-20T00:31:25;97623.00;;;7.00
15062;BMP180;7630;50.306;8.566;2023-12-20T00:35:26;97610.00;;;6.60
15062;BMP180;7630;50.306;8.566;2023-12-20T00:39:27;97643.00;;;6.00
15062;BMP180;7630;50.306;8.566;2023-12-20T00:43:29;97621.00;;;6.50
15062;BMP180;7630;50.306;8.566;2023-12-20T00:47:30;97619.00;;;6.80
15062;BMP180;7630;50.306;8.566;2023-12-20T00:51:32;97626.00;;;6.30
15062;BMP180;7630;50.306;8.566;2023-12-20T00:55:33;97612.00;;;6.50
15062;BMP180;7630;50.306;8.566;2023-12-20T00:59:34;97626.00;;;6.70
15062;BMP180;7630;50.306;8.566;2023-12-20T01:03:36;97608.00;;;7.50
15062;BMP180;7630;50.306;8.566;2023-12-20T01:07:37;97605.00;;;8.10
15062;BMP180;7630;50.306;8.566;2023-12-20T01:11:38;97595.00;;;7.20
15062;BMP180;7630;50.306;8.566;2023-12-20T01:15:39;97600.00;;;7.50
15062;BMP180;7630;50.306;8.566;2023-12-20T01:19:40;97604.00;;;7.90
15062;BMP180;7630;50.306;8.566;2023-12-20T01:23:42;97586.00;;;8.10
15062;BMP180;7630;50.306;8.566;2023-12-20T01:27:43;97593.00;;;8.20
15062;BMP180;7630;50.306;8.566;2023-12-20T01:31:44;97591.00;;;8.00
15062;BMP180;7630;50.306;8.566;2023-12-20T01:35:45;97603.00;;;8.00
15062;BMP180;7630;50.306;8.566;2023-12-20T01:39:46;97612.00;;;8.70
15062;BMP180;7630;50.306;8.566;2023-12-20T01:43:48;97621.00;;;8.00
15062;BMP180;7630;50.306;8.566;2023-12-20T01:47:51;97618.00;;;8.00
15062;BMP180;7630;50.306;8.566;2023-12-20T01:51:52;97614.00;;;7.40
15062;BMP180;7630;50.306;8.566;2023-12-20T01:55:55;97629.00;;;6.70
15062;BMP180;7630;50.306;8.566;2023-12-20T01:59:58;97603.00;;;7.00
15062;BMP180;7630;50.306;8.566;2023-12-20T02:03:59;97620.00;;;7.10
15062;BMP180;7630;50.306;8.566;2023-12-20T02:08:01;97598.00;;;6.60
15062;BMP180;7630;50.306;8.566;2023-12-20T02:12:03;97597.00;;;7.10
15062;BMP180;7630;50.306;8.566;2023-12-20T02:16:05;97587.00;;;7.00
15062;BMP180;7630;50.306;8.566;2023-12-20T02:20:08;97595.00;;;7.80
15062;BMP180;7630;50.306;8.566;2023-12-20T02:24:10;97602.00;;;7.00
15062;BMP180;7630;50.306;8.566;2023-12-20T02:28:11;97593.00;;;7.30
15062;BMP180;7630;50.306;8.566;2023-12-20T02:32:12;97593.00;;;8.00
15062;BMP180;7630;50.306;8.566;2023-12-20T02:36:14;97584.00;;;8.30
15062;BMP180;7630;50.306;8.566;2023-12-20T02:40:15;97585.00;;;7.40
15062;BMP180;7630;50.306;8.566;2023-12-20T02:44:16;97596.00;;;7.80
15062;BMP180;7630;50.306;8.566;2023-12-20T02:48:18;97597.00;;;9.00
15062;BMP180;7630;50.306;8.566;2023-12-20T02:52:19;97459.00;;;7.90
15062;BMP180;7630;50.306;8.566;2023-12-20T02:56:20;97610.00;;;8.60
15062;BMP180;7630;50.306;8.566;2023-12-20T03:00:21;97610.00;;;8.20
15062;BMP180;7630;50.306;8.566;2023-12-20T03:04:22;97606.00;;;8.30
15062;BMP180;7630;50.306;8.566;2023-12-20T03:08:23;97621.00;;;7.70
15062;BMP180;7630;50.306;8.566;2023-12-20T03:12:24;97609.00;;;8.00
15062;BMP180;7630;50.306;8.566;2023-12-20T03:16:26;97615.00;;;7.60
15062;BMP180;7630;50.306;8.566;2023-12-20T03:20:27;97614.00;;;8.40
15062;BMP180;7630;50.306;8.566;2023-12-20T03:24:28;97628.00;;;8.00
15062;BMP180;7630;50.306;8.566;2023-12-20T03:28:29;97639.00;;;8.30
15062;BMP180;7630;50.306;8.566;2023-12-20T03:32:30;97642.00;;;8.40
15062;BMP180;7630;50.306;8.566;2023-12-20T03:36:31;97638.00;;;8.00
15062;BMP180;7630;50.306;8.566;2023-12-20T03:40:32;97640.00;;;7.80
15062;BMP180;7630;50.306;8.566;2023-12-20T03:44:33;97646.00;;;7.90
15062;BMP180;7630;50.306;8.566;2023-12-20T03:48:34;97648.00;;;7.60
15062;BMP180;7630;50.306;8.566;2023-12-20T03:52:36;97630.00;;;7.70
15062;BMP180;7630;50.306;8.566;2023-12-20T03:56:37;97647.00;;;7.80
15062;BMP180;7630;50.306;8.566;2023-12-20T04:00:38;97647.00;;;7.70
15062;BMP180;7630;50.306;8.566;2023-12-20T04:04:40;97663.00;;;8.40
15062;BMP180;7630;50.306;8.566;2023-12-20T04:08:41;97637.00;;;7.80
15062;BMP180;7630;50.306;8.566;2023-12-20T04:12:42;97652.00;;;7.90
15062;BMP180;7630;50.306;8.566;2023-12-20T04:16:43;97650.00;;;8.30
15062;BMP180;7630;50.306;8.566;2023-12-20T04:20:46;97648.00;;;8.40
15062;BMP180;7630;50.306;8.566;2023-12-20T04:24:47;97656.00;;;7.80
15062;BMP180;7630;50.306;8.566;2023-12-20T04:28:48;97660.00;;;7.80
15062;BMP180;7630;50.306;8.566;2023-12-20T04:32:51;97646.00;;;6.40
15062;BMP180;7630;50.306;8.566;2023-12-20T04:36:53;97681.00;;;7.40
15062;BMP180;7630;50.306;8.566;2023-12-20T04:40:54;97676.00;;;7.10
15062;BMP180;7630;50.306;8.566;2023-12-20T04:44:55;97679.00;;;6.30
15062;BMP180;7630;50.306;8.566;2023-12-20T04:48:56;97679.00;;;6.10
15062;BMP180;7630;50.306;8.566;2023-12-20T04:52:58;97688.00;;;6.40
15062;BMP180;7630;50.306;8.566;2023-12-20T04:56:59;97695.00;;;6.00
15062;BMP180;7630;50.306;8.566;2023-12-20T05:01:00;97699.00;;;6.30
15062;BMP180;7630;50.306;8.566;2023-12-20T05:05:02;97697.00;;;6.90
15062;BMP180;7630;50.306;8.566;2023-12-20T05:09:03;97713.00;;;6.00
15062;BMP180;7630;50.306;8.566;2023-12-20T05:13:04;97697.00;;;6.60
15062;BMP180;7630;50.306;8.566;2023-12-20T05:17:05;97698.00;;;7.20
15062;BMP180;7630;50.306;8.566;2023-12-20T05:21:07;97699.00;;;7.40
15062;BMP180;7630;50.306;8.566;2023-12-20T05:25:08;97696.00;;;7.10
15062;BMP180;7630;50.306;8.566;2023-12-20T05:29:09;97702.00;;;7.00
15062;BMP180;7630;50.306;8.566;2023-12-20T05:33:10;97698.00;;;6.10
15062;BMP180;7630;50.306;8.566;2023-12-20T05:37:11;97694.00;;;5.50
15062;BMP180;7630;50.306;8.566;2023-12-20T05:41:12;97711.00;;;7.40
15062;BMP180;7630;50.306;8.566;2023-12-20T05:45:14;97708.00;;;6.30
15062;BMP180;7630;50.306;8.566;2023-12-20T05:49:16;97708.00;;;6.60
15062;BMP180;7630;50.306;8.566;2023-12-20T05:53:17;97714.00;;;6.20
15062;BMP180;7630;50.306;8.566;2023-12-20T05:57:18;97701.00;;;5.90
15062;BMP180;7630;50.306;8.566;2023-12-20T06:01:19;97706.00;;;6.40
15062;BMP180;7630;50.306;8.566;2023-12-20T06:05:20;97703.00;;;5.80
15062;BMP180;7630;50.306;8.566;2023-12-20T06:09:22;97713.00;;;5.60
15062;BMP180;7630;50.306;8.566;2023-12-20T06:13:23;97725.00;;;6.30
15062;BMP180;7630;50.306;8.566;2023-12-20T06:17:24;97721.00;;;6.10
15062;BMP180;7630;50.306;8.566;2023-12-20T06:21:25;97716.00;;;7.20
15062;BMP180;7630;50.306;8.566;2023-12-20T06:25:26;97712.00;;;7.30
15062;BMP180;7630;50.306;8.566;2023-12-20T06:29:28;97716.00;;;6.10
15062;BMP180;7630;50.306;8.566;2023-12-20T06:33:29;97716.00;;;6.90
15062;BMP180;7630;50.306;8.566;2023-12-20T06:37:31;97722.00;;;6.30
15062;BMP180;7630;50.306;8.566;2023-12-20T06:41:33;97735.00;;;7.50
15062;BMP180;7630;50.306;8.566;2023-12-20T06:45:34;97745.00;;;7.20
15062;BMP180;7630;50.306;8.566;2023-12-20T06:49:35;97745.00;;;7.50
15062;BMP180;7630;50.306;8.566;2023-12-20T06:53:36;97742.00;;;6.70
15062;BMP180;7630;50.306;8.566;2023-12-20T06:57:37;97758.00;;;6.80
15062;BMP180;7630;50.306;8.566;2023-12-20T07:01:38;97756.00;;;7.10
15062;BMP180;7630;50.306;8.566;2023-12-20T07:05:40;97756.00;;;7.70
15062;BMP180;7630;50.306;8.566;2023-12-20T07:09:41;97760.00;;;6.80
15062;BMP180;7630;50.306;8.566;2023-12-20T07:13:44;97761.00;;;6.20
15062;BMP180;7630;50.306;8.566;2023-12-20T07:17:45;97768.00;;;6.20
15062;BMP180;7630;50.306;8.566;2023-12-20T07:21:46;97757.00;;;6.80
15062;BMP180;7630;50.306;8.566;2023-12-20T07:25:47;97774.00;;;6.50
15062;BMP180;7630;50.306;8.566;2023-12-20T07:29:49;97766.00;;;6.90
15062;BMP180;7630;50.306;8.566;2023-12-20T07:33:50;97752.00;;;6.50
15062;BMP180;7630;50.306;8.566;2023-12-20T07:37:51;97769.00;;;6.00
15062;BMP180;7630;50.306;8.566;2023-12-20T07:41:52;97766.00;;;6.40
15062;BMP180;7630;50.306;8.566;2023-12-20T07:45:54;97769.00;;;6.90
15062;BMP180;7630;50.306;8.566;2023-12-20T07:49:55;97769.00;;;7.60
15062;BMP180;7630;50.306;8.566;2023-12-20T07:53:56;97777.00;;;7.30
15062;BMP180;7630;50.306;8.566;2023-12-20T07:57:58;97786.00;;;7.70
15062;BMP180;7630;50.306;8.566;2023-12-20T08:01:59;97796.00;;;7.30
15062;BMP180;7630;50.306;8.566;2023-12-20T08:06:02;97780.00;;;7.00
15062;BMP180;7630;50.306;8.566;2023-12-20T08:10:04;97785.00;;;7.00
15062;BMP180;7630;50.306;8.566;2023-12-20T08:14:05;97781.00;;;6.60
15062;BMP180;7630;50.306;8.566;2023-12-20T08:18:06;97777.00;;;7.30
15062;BMP180;7630;50.306;8.566;2023-12-20T08:22:08;97787.00;;;6.00
15062;BMP180;7630;50.306;8.566;2023-12-20T08:26:09;97781.00;;;6.40
15062;BMP180;7630;50.306;8.566;2023-12-20T08:30:10;97789.00;;;7.50
15062;BMP180;7630;50.306;8.566;2023-12-20T08:34:12;97788.00;;;6.70
15062;BMP180;7630;50.306;8.566;2023-12-20T08:38:15;97784.00;;;6.70
15062;BMP180;7630;50.306;8.566;2023-12-20T08:42:17;97799.00;;;7.20
15062;BMP180;7630;50.306;8.566;2023-12-20T08:46:18;97801.00;;;6.70
15062;BMP180;7630;50.306;8.566;2023-12-20T08:50:20;97787.00;;;7.00
15062;BMP180;7630;50.306;8.566;2023-12-20T08:54:21;97792.00;;;6.90
15062;BMP180;7630;50.306;8.566;2023-12-20T08:58:22;97806.00;;;7.90
15062;BMP180;7630;50.306;8.566;2023-12-20T09:02:23;97796.00;;;7.40
15062;BMP180;7630;50.306;8.566;2023-12-20T09:06:24;97797.00;;;7.30
15062;BMP180;7630;50.306;8.566;2023-12-20T09:10:26;97797.00;;;7.20
15062;BMP180;7630;50.306;8.566;2023-12-20T09:14:27;97794.00;;;6.30
15062;BMP180;7630;50.306;8.566;2023-12-20T09:18:28;97789.00;;;7.00
15062;BMP180;7630;50.306;8.566;2023-12-20T09:22:29;97799.00;;;7.50
15062;BMP180;7630;50.306;8.566;2023-12-20T09:26:30;97794.00;;;6.90
15062;BMP180;7630;50.306;8.566;2023-12-20T09:30:32;97796.00;;;6.90
15062;BMP180;7630;50.306;8.566;2023-12-20T09:34:33;97808.00;;;6.80
15062;BMP180;7630;50.306;8.566;2023-12-20T09:38:35;97818.00;;;7.30
15062;BMP180;7630;50.306;8.566;2023-12-20T09:46:43;97821.00;;;6.90
15062;BMP180;7630;50.306;8.566;2023-12-20T09:50:45;97816.00;;;6.30
15062;BMP180;7630;50.306;8.566;2023-12-20T09:54:49;97797.00;;;6.80
15062;BMP180;7630;50.306;8.566;2023-12-20T09:58:52;97789.00;;;7.00
15062;BMP180;7630;50.306;8.566;2023-12-20T10:02:59;97795.00;;;6.60
15062;BMP180;7630;50.306;8.566;2023-12-20T10:07:04;97808.00;;;7.10
15062;BMP180;7630;50.306;8.566;2023-12-20T10:11:07;97798.00;;;6.80
15062;BMP180;7630;50.306;8.566;2023-12-20T10:15:08;97794.00;;;7.10
15062;BMP180;7630;50.306;8.566;2023-12-20T10:19:11;97776.00;;;6.80
15062;BMP180;7630;50.306;8.566;2023-12-20T10:23:13;97762.00;;;6.70
15062;BMP180;7630;50.306;8.566;2023-12-20T10:27:17;97758.00;;;7.10
15062;BMP180;7630;50.306;8.566;2023-12-20T10:31:32;97743.00;;;7.20
15062;BMP180;7630;50.306;8.566;2023-12-20T10:35:35;97745.00;;;7.10
15062;BMP180;7630;50.306;8.566;2023-12-20T10:39:37;97752.00;;;7.10
15062;BMP180;7630;50.306;8.566;2023-12-20T10:43:38;97732.00;;;6.40
15062;BMP180;7630;50.306;8.566;2023-12-20T10:47:41;97742.00;;;6.60
15062;BMP180;7630;50.306;8.566;2023-12-20T10:51:44;97736.00;;;7.90
15062;BMP180;7630;50.306;8.566;2023-12-20T10:55:49;97746.00;;;7.80
15062;BMP180;7630;50.306;8.566;2023-12-20T10:59:53;97731.00;;;6.70
15062;BMP180;7630;50.306;8.566;2023-12-20T11:03:55;97731.00;;;7.00
15062;BMP180;7630;50.306;8.566;2023-12-20T11:08:20;97744.00;;;7.00
15062;BMP180;7630;50.306;8.566;2023-12-20T11:12:41;97736.00;;;8.30
15062;BMP180;7630;50.306;8.566;2023-12-20T11:16:27;97734.00;;;8.10
15062;BMP180;7630;50.306;8.566;2023-12-20T11:20:39;97726.00;;;8.00
15062;BMP180;7630;50.306;8.566;2023-12-20T11:24:44;97735.00;;;7.20
15062;BMP180;7630;50.306;8.566;2023-12-20T11:28:45;97730.00;;;6.80
15062;BMP180;7630;50.306;8.566;2023-12-20T11:32:46;97729.00;;;7.50
15062;BMP180;7630;50.306;8.566;2023-12-20T11:36:48;97739.00;;;7.60
15062;BMP180;7630;50.306;8.566;2023-12-20T11:40:53;97735.00;;;7.00
15062;BMP180;7630;50.306;8.566;2023-12-20T11:44:56;97728.00;;;6.50
15062;BMP180;7630;50.306;8.566;2023-12-20T11:48:57;97703.00;;;6.40
15062;BMP180;7630;50.306;8.566;2023-12-20T11:52:58;97700.00;;;6.50
15062;BMP180;7630;50.306;8.566;2023-12-20T11:57:00;97709.00;;;6.30
15062;BMP180;7630;50.306;8.566;2023-12-20T12:01:02;97698.00;;;6.30
15062;BMP180;7630;50.306;8.566;2023-12-20T12:05:04;97697.00;;;5.70
15062;BMP180;7630;50.306;8.566;2023-12-20T12:09:25;97693.00;;;6.20
15062;BMP180;7630;50.306;8.566;2023-12-20T12:13:27;97697.00;;;6.10
15062;BMP180;7630;50.306;8.566;2023-12-20T12:17:28;97695.00;;;6.20
15062;BMP180;7630;50.306;8.566;2023-12-20T12:21:29;97712.00;;;5.90
15062;BMP180;7630;50.306;8.566;2023-12-20T12:25:35;97693.00;;;6.30
15062;BMP180;7630;50.306;8.566;2023-12-20T12:29:38;97696.00;;;7.40
15062;BMP180;7630;50.306;8.566;2023-12-20T12:33:40;97681.00;;;7.00
15062;BMP180;7630;50.306;8.566;2023-12-20T12:37:42;97699.00;;;7.60
15062;BMP180;7630;50.306;8.566;2023-12-20T12:41:44;97684.00;;;7.00
15062;BMP180;7630;50.306;8.566;2023-12-20T12:45:45;97685.00;;;6.20
15062;BMP180;7630;50.306;8.566;2023-12-20T12:49:46;97659.00;;;6.80
15062;BMP180;7630;50.306;8.566;2023-12-20T12:53:48;97668.00;;;6.90
15062;BMP180;7630;50.306;8.566;2023-12-20T12:57:49;97661.00;;;7.20
15062;BMP180;7630;50.306;8.566;2023-12-20T13:01:50;97651.00;;;7.20
15062;BMP180;7630;50.306;8.566;2023-12-20T13:05:52;97628.00;;;7.00
15062;BMP180;7630;50.306;8.566;2023-12-20T13:09:53;97630.00;;;6.80
15062;BMP180;7630;50.306;8.566;2023-12-20T13:13:54;97620.00;;;6.90
15062;BMP180;7630;50.306;8.566;2023-12-20T13:17:55;97620.00;;;6.80
15062;BMP180;7630;50.306;8.566;2023-12-20T13:21:57;97616.00;;;7.60
15062;BMP180;7630;50.306;8.566;2023-12-20T13:25:59;97612.00;;;7.70
15062;BMP180;7630;50.306;8.566;2023-12-20T13:30:00;97594.00;;;6.90
15062;BMP180;7630;50.306;8.566;2023-12-20T13:34:02;97612.00;;;7.20
15062;BMP180;7630;50.306;8.566;2023-12-20T13:38:03;97595.00;;;7.00
15062;BMP180;7630;50.306;8.566;2023-12-20T13:42:05;97594.00;;;7.40
15062;BMP180;7630;50.306;8.566;2023-12-20T13:46:06;97597.00;;;6.70
15062;BMP180;7630;50.306;8.566;2023-12-20T13:50:07;97597.00;;;6.90
15062;BMP180;7630;50.306;8.566;2023-12-20T13:54:08;97597.00;;;6.70
15062;BMP180;7630;50.306;8.566;2023-12-20T13:58:12;97565.00;;;6.10
15062;BMP180;7630;50.306;8.566;2023-12-20T14:02:13;97603.00;;;6.50
15062;BMP180;7630;50.306;8.566;2023-12-20T14:06:14;97586.00;;;7.50
15062;BMP180;7630;50.306;8.566;2023-12-20T14:10:16;97587.00;;;7.70
15062;BMP180;7630;50.306;8.566;2023-12-20T14:14:18;97590.00;;;6.90
15062;BMP180;7630;50.306;8.566;2023-12-20T14:18:19;97586.00;;;7.90
15062;BMP180;7630;50.306;8.566;2023-12-20T14:22:20;97579.00;;;7.10
15062;BMP180;7630;50.306;8.566;2023-12-20T14:26:22;97582.00;;;6.80
15062;BMP180;7630;50.306;8.566;2023-12-20T14:30:23;97580.00;;;7.20
15062;BMP180;7630;50.306;8.566;2023-12-20T14:34:24;97580.00;;;7.60
15062;BMP180;7630;50.306;8.566;2023-12-20T14:38:25;97563.00;;;8.00
15062;BMP180;7630;50.306;8.566;2023-12-20T14:42:27;97562.00;;;6.70
15062;BMP180;7630;50.306;8.566;2023-12-20T14:46:28;97567.00;;;6.60
15062;BMP180;7630;50.306;8.566;2023-12-20T14:50:29;97569.00;;;6.60
15062;BMP180;7630;50.306;8.566;2023-12-20T14:54:30;97563.00;;;6.80
15062;BMP180;7630;50.306;8.566;2023-12-20T14:58:32;97586.00;;;6.60
15062;BMP180;7630;50.306;8.566;2023-12-20T15:02:34;97581.00;;;6.60
15062;BMP180;7630;50.306;8.566;2023-12-20T15:06:35;97579.00;;;7.10
15062;BMP180;7630;50.306;8.566;2023-12-20T15:10:36;97573.00;;;6.00
15062;BMP180;7630;50.306;8.566;2023-12-20T15:14:38;97569.00;;;7.00
15062;BMP180;7630;50.306;8.566;2023-12-20T15:18:39;97577.00;;;7.10
15062;BMP180;7630;50.306;8.566;2023-12-20T15:22:40;97579.00;;;6.80
15062;BMP180;7630;50.306;8.566;2023-12-20T15:26:43;97583.00;;;7.20
15062;BMP180;7630;50.306;8.566;2023-12-20T15:30:44;97576.00;;;6.70
15062;BMP180;7630;50.306;8.566;2023-12-20T15:34:46;97581.00;;;6.60
15062;BMP180;7630;50.306;8.566;2023-12-20T15:38:47;97578.00;;;6.80
15062;BMP180;7630;50.306;8.566;2023-12-20T15:42:48;97578.00;;;7.40
15062;BMP180;7630;50.306;8.566;2023-12-20T15:46:51;97578.00;;;7.00
15062;BMP180;7630;50.306;8.566;2023-12-20T15:50:52;97576.00;;;6.50
15062;BMP180;7630;50.306;8.566;2023-12-20T15:54:53;97578.00;;;7.90
15062;BMP180;7630;50.306;8.566;2023-12-20T15:58:54;97568.00;;;6.90
15062;BMP180;7630;50.306;8.566;2023-12-20T16:02:58;97562.00;;;7.00
15062;BMP180;7630;50.306;8.566;2023-12-20T16:07:00;97577.00;;;6.80
15062;BMP180;7630;50.306;8.566;2023-12-20T16:11:02;97552.00;;;7.70
15062;BMP180;7630;50.306;8.566;2023-12-20T16:15:03;97566.00;;;7.20
15062;BMP180;7630;50.306;8.566;2023-12-20T16:19:05;97567.00;;;7.00
15062;BMP180;7630;50.306;8.566;2023-12-20T16:23:06;97578.00;;;6.00
15062;BMP180;7630;50.306;8.566;2023-12-20T16:27:07;97577.00;;;7.10
15062;BMP180;7630;50.306;8.566;2023-12-20T16:31:09;97564.00;;;7.00
15062;BMP180;7630;50.306;8.566;2023-12-20T16:35:10;97568.00;;;6.40
15062;BMP180;7630;50.306;8.566;2023-12-20T16:39:12;97575.00;;;6.50
15062;BMP180;7630;50.306;8.566;2023-12-20T16:43:13;97567.00;;;6.60
15062;BMP180;7630;50.306;8.566;2023-12-20T16:47:14;97569.00;;;7.00
15062;BMP180;7630;50.306;8.566;2023-12-20T16:51:15;97563.00;;;7.10
15062;BMP180;7630;50.306;8.566;2023-12-20T16:55:17;97564.00;;;7.00
15062;BMP180;7630;50.306;8.566;2023-12-20T16:59:18;97553.00;;;6.60
15062;BMP180;7630;50.306;8.566;2023-12-20T17:03:19;97544.00;;;7.50
15062;BMP180;7630;50.306;8.566;2023-12-20T17:07:21;97557.00;;;7.10
15062;BMP180;7630;50.306;8.566;2023-12-20T17:11:22;97559.00;;;7.60
15062;BMP180;7630;50.306;8.566;2023-12-20T17:15:23;97554.00;;;7.90
15062;BMP180;7630;50.306;8.566;2023-12-20T17:19:24;97572.00;;;7.70
15062;BMP180;7630;50.306;8.566;2023-12-20T17:23:26;97568.00;;;8.00
15062;BMP180;7630;50.306;8.566;2023-12-20T17:27:27;97576.00;;;7.90
15062;BMP180;7630;50.306;8.566;2023-12-20T17:31:28;97564.00;;;7.80
15062;BMP180;7630;50.306;8.566;2023-12-20T17:35:30;97563.00;;;7.40
15062;BMP180;7630;50.306;8.566;2023-12-20T17:39:31;97571.00;;;7.30
15062;BMP180;7630;50.306;8.566;2023-12-20T17:43:32;97567.00;;;7.60
15062;BMP180;7630;50.306;8.566;2023-12-20T17:47:34;97563.00;;;7.50
15062;BMP180;7630;50.306;8.566;2023-12-20T17:51:35;97562.00;;;7.40
15062;BMP180;7630;50.306;8.566;2023-12-20T17:55:36;97562.00;;;7.30
15062;BMP180;7630;50.306;8.566;2023-12-20T17:59:38;97564.00;;;7.50
15062;BMP180;7630;50.306;8.566;2023-12-20T18:03:41;97560.00;;;7.60
15062;BMP180;7630;50.306;8.566;2023-12-20T18:07:43;97552.00;;;8.10
15062;BMP180;7630;50.306;8.566;2023-12-20T18:11:46;97542.00;;;8.20
15062;BMP180;7630;50.306;8.566;2023-12-20T18:15:48;97544.00;;;7.30
15062;BMP180;7630;50.306;8.566;2023-12-20T18:19:49;97543.00;;;7.60
15062;BMP180;7630;50.306;8.566;2023-12-20T18:23:50;97544.00;;;7.20
15062;BMP180;7630;50.306;8.566;2023-12-20T18:27:53;97544.00;;;7.00
15062;BMP180;7630;50.306;8.566;2023-12-20T18:31:54;97553.00;;;7.00
15062;BMP180;7630;50.306;8.566;2023-12-20T18:35:55;97271.00;;;7.10
15062;BMP180;7630;50.306;8.566;2023-12-20T18:39:57;97549.00;;;7.10
15062;BMP180;7630;50.306;8.566;2023-12-20T18:43:58;97543.00;;;7.60
15062;BMP180;7630;50.306;8.566;2023-12-20T18:47:59;97527.00;;;7.40
15062;BMP180;7630;50.306;8.566;2023-12-20T18:52:00;97536.00;;;7.60
15062;BMP180;7630;50.306;8.566;2023-12-20T18:56:04;97526.00;;;8.00
15062;BMP180;7630;50.306;8.566;2023-12-20T19:00:06;97524.00;;;7.50
15062;BMP180;7630;50.306;8.566;2023-12-20T19:04:09;97528.00;;;7.10
15062;BMP180;7630;50.306;8.566;2023-12-20T19:08:10;97509.00;;;7.30
15062;BMP180;7630;50.306;8.566;2023-12-20T19:12:11;97495.00;;;7.40
15062;BMP180;7630;50.306;8.566;2023-12-20T19:16:13;97496.00;;;7.00
15062;BMP180;7630;50.306;8.566;2023-12-20T19:20:14;97492.00;;;7.70
15062;BMP180;7630;50.306;8.566;2023-12-20T19:24:15;97505.00;;;7.80
15062;BMP180;7630;50.306;8.566;2023-12-20T19:28:16;97481.00;;;7.20
15062;BMP180;7630;50.306;8.566;2023-12-20T19:32:18;97490.00;;;7.80
15062;BMP180;7630;50.306;8.566;2023-12-20T19:36:19;97499.00;;;7.60
15062;BMP180;7630;50.306;8.566;2023-12-20T19:40:20;97484.00;;;7.60
15062;BMP180;7630;50.306;8.566;2023-12-20T19:44:22;97476.00;;;8.10
15062;BMP180;7630;50.306;8.566;2023-12-20T19:48:23;97475.00;;;8.10
15062;BMP180;7630;50.306;8.566;2023-12-20T19:52:24;97471.00;;;7.40
15062;BMP180;7630;50.306;8.566;2023-12-20T19:56:25;97456.00;;;7.80
15062;BMP180;7630;50.306;8.566;2023-12-20T20:00:26;97452.00;;;8.10
15062;BMP180;7630;50.306;8.566;2023-12-20T20:04:30;97442.00;;;7.60
15062;BMP180;7630;50.306;8.566;2023-12-20T20:08:32;97431.00;;;7.50
15062;BMP180;7630;50.306;8.566;2023-12-20T20:12:33;97437.00;;;7.90
15062;BMP180;7630;50.306;8.566;2023-12-20T20:16:34;97421.00;;;7.50
15062;BMP180;7630;50.306;8.566;2023-12-20T20:20:36;97411.00;;;6.70
15062;BMP180;7630;50.306;8.566;2023-12-20T20:24:37;97419.00;;;7.60
15062;BMP180;7630;50.306;8.566;2023-12-20T20:28:38;97405.00;;;7.40
15062;BMP180;7630;50.306;8.566;2023-12-20T20:32:39;97397.00;;;7.50
15062;BMP180;7630;50.306;8.566;2023-12-20T20:36:41;97400.00;;;7.50
15062;BMP180;7630;50.306;8.566;2023-12-20T20:40:42;97406.00;;;7.40
15062;BMP180;7630;50.306;8.566;2023-12-20T20:44:43;97390.00;;;7.20
15062;BMP180;7630;50.306;8.566;2023-12-20T20:48:45;97395.00;;;7.50
15062;BMP180;7630;50.306;8.566;2023-12-20T20:52:48;97383.00;;;7.80
15062;BMP180;7630;50.306;8.566;2023-12-20T20:56:49;97380.00;;;7.50
15062;BMP180;7630;50.306;8.566;2023-12-20T21:00:50;97363.00;;;7.20
15062;BMP180;7630;50.306;8.566;2023-12-20T21:04:51;97354.00;;;7.60
15062;BMP180;7630;50.306;8.566;2023-12-20T21:08:52;97362.00;;;7.80
15062;BMP180;7630;50.306;8.566;2023-12-20T21:12:54;97346.00;;;8.50
15062;BMP180;7630;50.306;8.566;2023-12-20T21:16:55;97339.00;;;8.40
15062;BMP180;7630;50.306;8.566;2023-12-20T21:20:57;97330.00;;;7.70
15062;BMP180;7630;50.306;8.566;2023-12-20T21:24:58;97308.00;;;7.30
15062;BMP180;7630;50.306;8.566;2023-12-20T21:28:59;97328.00;;;7.90
15062;BMP180;7630;50.306;8.566;2023-12-20T21:33:00;97330.00;;;8.30
15062;BMP180;7630;50.306;8.566;2023-12-20T21:37:02;97310.00;;;7.60
15062;BMP180;7630;50.306;8.566;2023-12-20T21:41:03;97304.00;;;7.60
15062;BMP180;7630;50.306;8.566;2023-12-20T21:45:05;97289.00;;;8.00
15062;BMP180;7630;50.306;8.566;2023-12-20T21:49:07;97295.00;;;7.80
15062;BMP180;7630;50.306;8.566;2023-12-20T21:53:08;97284.00;;;7.30
15062;BMP180;7630;50.306;8.566;2023-12-20T21:57:11;97275.00;;;7.70
15062;BMP180;7630;50.306;8.566;2023-12-20T22:01:12;97274.00;;;7.70
15062;BMP180;7630;50.306;8.566;2023-12-20T22:05:13;97270.00;;;7.60
15062;BMP180;7630;50.306;8.566;2023-12-20T22:09:14;97275.00;;;7.90
15062;BMP180;7630;50.306;8.566;2023-12-20T22:13:15;97267.00;;;8.60
15062;BMP180;7630;50.306;8.566;2023-12-20T22:17:16;97269.00;;;7.60
15062;BMP180;7630;50.306;8.566;2023-12-20T22:21:18;97273.00;;;7.50
15062;BMP180;7630;50.306;8.566;2023-12-20T22:25:19;97263.00;;;7.10
15062;BMP180;7630;50.306;8.566;2023-12-20T22:29:20;97245.00;;;7.30
15062;BMP180;7630;50.306;8.566;2023-12-20T22:33:23;97219.00;;;7.90
15062;BMP180;7630;50.306;8.566;2023-12-20T22:37:26;97239.00;;;7.00
15062;BMP180;7630;50.306;8.566;2023-12-20T22:41:27;97255.00;;;7.80
15062;BMP180;7630;50.306;8.566;2023-12-20T22:45:28;97239.00;;;7.90
15062;BMP180;7630;50.306;8.566;2023-12-20T22:49:29;97227.00;;;7.80
15062;BMP180;7630;50.306;8.566;2023-12-20T22:53:31;97216.00;;;7.50
15062;BMP180;7630;50.306;8.566;2023-12-20T22:57:32;97185.00;;;7.50
15062;BMP180;7630;50.306;8.566;2023-12-20T23:01:33;97204.00;;;7.80
15062;BMP180;7630;50.306;8.566;2023-12-20T23:05:34;97208.00;;;7.90
15062;BMP180;7630;50.306;8.566;2023-12-20T23:09:35;97190.00;;;7.40
15062;BMP180;7630;50.306;8.566;2023-12-20T23:13:38;97187.00;;;7.80
15062;BMP180;7630;50.306;8.566;2023-12-20T23:17:39;97175.00;;;7.70
15062;BMP180;7630;50.306;8.566;2023-12-20T23:21:40;97183.00;;;7.40
15062;BMP180;7630;50.306;8.566;2023-12-20T23:25:41;97190.00;;;8.00
15062;BMP180;7630;50.306;8.566;2023-12-20T23:29:42;97196.00;;;7.50
15062;BMP180;7630;50.306;8.566;2023-12-20T23:33:43;97193.00;;;7.60
15062;BMP180;7630;50.306;8.566;2023-12-20T23:37:46;97185.00;;;7.90
15062;BMP180;7630;50.306;8.566;2023-12-20T23:41:49;97175.00;;;8.00
15062;BMP180;7630;50.306;8.566;2023-12-20T23:45:50;97159.00;;;7.60
15062;BMP180;7630;50.306;8.566;2023-12-20T23:49:51;97168.00;;;8.10
15062;BMP180;7630;50.306;8.566;2023-12-20T23:53:52;97159.00;;;8.30
15062;BMP180;7630;50.306;8.566;2023-12-20T23:57:54;97145.00;;;7.70
